createdAt,value
2019-01-12T00:03:31.395Z,10.60
2019-01-12T00:08:33.057Z,6.87
2019-01-12T00:13:35.087Z,12.07
2019-01-12T00:18:36.619Z,7.17
2019-01-12T00:23:38.194Z,10.83
2019-01-12T00:28:40.253Z,9.73
2019-01-12T00:33:41.881Z,9.50
2019-01-12T00:38:43.406Z,8.17
2019-01-12T00:43:47.858Z,15.20
2019-01-12T00:48:49.395Z,7.00
2019-01-12T00:53:50.972Z,11.30
2019-01-12T00:58:52.506Z,9.50
2019-01-12T01:03:54.082Z,8.83
2019-01-12T01:08:55.632Z,12.27
2019-01-12T01:13:57.183Z,10.70
2019-01-12T01:18:58.757Z,12.23
2019-01-12T01:24:00.427Z,7.20
2019-01-12T01:29:01.960Z,9.73
2019-01-12T01:34:04.626Z,9.70
2019-01-12T01:39:07.552Z,9.60
2019-01-12T01:44:10.958Z,8.20
2019-01-12T01:49:12.496Z,10.40
2019-01-12T01:54:14.072Z,7.80
2019-01-12T01:59:15.639Z,9.53
2019-01-12T02:04:17.160Z,5.30
2019-01-12T02:09:18.718Z,9.77
2019-01-12T02:14:20.651Z,12.10
2019-01-12T02:19:23.316Z,8.20
2019-01-12T02:24:24.824Z,15.40
2019-01-12T02:29:26.530Z,15.57
2019-01-12T02:34:28.057Z,14.40
2019-01-12T02:39:29.942Z,16.80
2019-01-12T02:44:31.488Z,15.00
2019-01-12T02:49:33.099Z,10.37
2019-01-12T02:54:34.620Z,9.73
2019-01-12T02:59:36.176Z,12.17
2019-01-12T03:04:37.755Z,12.70
2019-01-12T03:09:39.260Z,12.77
2019-01-12T03:14:41.143Z,14.53
2019-01-12T03:19:42.685Z,19.17
2019-01-12T03:24:44.205Z,24.53
2019-01-12T03:29:45.780Z,30.87
2019-01-12T03:34:47.350Z,34.73
2019-01-12T03:39:48.867Z,34.80
2019-01-12T03:44:50.430Z,34.47
2019-01-12T03:49:51.929Z,37.10
2019-01-12T03:54:53.476Z,45.87
2019-01-12T03:59:55.046Z,41.93
2019-01-12T04:04:56.608Z,48.87
2019-01-12T04:09:58.254Z,42.00
2019-01-12T04:14:59.959Z,43.83
2019-01-12T04:20:01.869Z,46.80
2019-01-12T04:25:03.668Z,44.90
2019-01-12T04:30:08.385Z,49.20
2019-01-12T04:35:09.953Z,38.87
2019-01-12T04:40:16.586Z,35.87
2019-01-12T04:45:19.939Z,34.33
2019-01-12T04:50:21.468Z,39.77
2019-01-12T04:55:24.602Z,34.97
2019-01-12T05:00:26.151Z,35.20
2019-01-12T05:05:27.660Z,32.60
2019-01-12T05:10:29.206Z,25.53
2019-01-12T05:15:30.731Z,27.10
2019-01-12T05:20:33.602Z,25.87
2019-01-12T05:25:35.366Z,17.77
2019-01-12T05:30:36.915Z,21.17
2019-01-12T05:35:38.487Z,20.73
2019-01-12T05:40:41.916Z,19.87
2019-01-12T05:45:43.493Z,20.53
2019-01-12T05:50:46.138Z,18.27
2019-01-12T05:55:47.646Z,18.77
2019-01-12T06:00:49.276Z,10.67
2019-01-12T06:05:50.822Z,11.33
2019-01-12T06:10:52.772Z,13.03
2019-01-12T06:15:56.319Z,16.70
2019-01-12T06:20:57.948Z,12.67
2019-01-12T06:26:03.901Z,12.90
2019-01-12T06:31:03.150Z,11.87
2019-01-12T06:36:04.675Z,15.10
2019-01-12T06:41:07.410Z,13.73
2019-01-12T06:46:09.051Z,15.87
2019-01-12T06:51:10.652Z,14.13
2019-01-12T06:56:12.168Z,17.93
2019-01-12T07:01:14.902Z,11.60
2019-01-12T07:06:16.452Z,15.30
2019-01-12T07:11:18.035Z,17.93
2019-01-12T07:16:19.600Z,20.13
2019-01-12T07:21:21.153Z,17.67
2019-01-12T07:26:22.702Z,18.23
2019-01-12T07:31:25.409Z,20.73
2019-01-12T07:36:27.079Z,19.27
2019-01-12T07:41:28.681Z,23.60
2019-01-12T07:46:30.222Z,25.00
2019-01-12T07:51:31.772Z,25.27
2019-01-12T07:56:33.771Z,31.83
2019-01-12T08:01:35.349Z,30.68
2019-01-12T08:06:36.964Z,31.63
2019-01-12T08:11:46.132Z,27.90
2019-01-12T08:16:47.768Z,29.10
2019-01-12T08:21:49.280Z,27.63
2019-01-12T08:26:51.181Z,29.27
2019-01-12T08:31:53.508Z,27.90
2019-01-12T08:37:00.538Z,31.70
2019-01-12T08:42:02.123Z,29.07
2019-01-12T08:47:05.488Z,29.63
2019-01-12T08:52:07.041Z,28.33
2019-01-12T08:57:08.587Z,31.63
2019-01-12T09:02:12.028Z,30.63
2019-01-12T09:07:15.568Z,36.37
2019-01-12T09:12:18.385Z,34.93
2019-01-12T09:17:19.973Z,31.87
2019-01-12T09:22:21.570Z,39.47
2019-01-12T09:27:23.120Z,36.03
2019-01-12T09:32:24.836Z,42.13
2019-01-12T09:37:26.390Z,35.60
2019-01-12T09:42:28.199Z,40.77
2019-01-12T09:47:29.776Z,34.30
2019-01-12T09:52:31.383Z,42.10
2019-01-12T09:57:33.883Z,39.90
2019-01-12T10:02:35.821Z,43.93
2019-01-12T10:07:37.379Z,31.43
2019-01-12T10:12:39.096Z,29.30
2019-01-12T10:17:40.627Z,31.93
2019-01-12T10:22:42.761Z,28.17
2019-01-12T10:27:44.300Z,32.50
2019-01-12T10:32:45.890Z,27.63
2019-01-12T10:37:49.248Z,29.50
2019-01-12T10:42:52.578Z,21.97
2019-01-12T10:47:54.483Z,24.63
2019-01-12T10:52:55.961Z,22.53
2019-01-12T10:57:58.492Z,20.23
2019-01-12T11:03:01.841Z,25.67
2019-01-12T11:08:04.434Z,23.47
2019-01-12T11:13:08.156Z,19.17
2019-01-12T11:18:09.678Z,11.30
2019-01-12T11:23:11.371Z,11.60
2019-01-12T11:28:12.943Z,8.27
2019-01-12T11:33:14.534Z,14.43
2019-01-12T11:38:16.256Z,14.17
2019-01-12T11:43:17.864Z,19.80
2019-01-12T11:48:19.714Z,10.50
2019-01-12T11:53:21.677Z,13.93
2019-01-12T11:58:23.549Z,17.30
2019-01-12T12:03:25.111Z,17.90
2019-01-12T12:08:26.634Z,22.80
2019-01-12T12:13:28.186Z,27.23
2019-01-12T12:18:29.733Z,24.00
2019-01-12T12:23:31.275Z,15.90
2019-01-12T12:28:32.889Z,19.10
2019-01-12T12:33:34.492Z,17.90
2019-01-12T12:38:36.015Z,21.77
2019-01-12T12:43:37.676Z,21.83
2019-01-12T12:48:39.358Z,31.30
2019-01-12T12:53:40.976Z,25.17
2019-01-12T12:58:42.518Z,32.13
2019-01-12T13:03:44.051Z,21.30
2019-01-12T13:08:48.524Z,23.47
2019-01-12T13:13:51.814Z,23.50
2019-01-12T13:18:53.404Z,20.10
2019-01-12T13:23:55.086Z,23.77
2019-01-12T13:28:57.057Z,21.30
2019-01-12T13:33:59.048Z,23.70
2019-01-12T13:39:02.032Z,14.13
2019-01-12T13:44:03.642Z,13.80
2019-01-12T13:49:07.047Z,16.03
2019-01-12T13:54:10.423Z,11.97
2019-01-12T13:59:14.412Z,15.03
2019-01-12T14:04:16.199Z,14.07
2019-01-12T14:09:17.801Z,16.37
2019-01-12T14:14:19.706Z,11.63
2019-01-12T14:19:22.722Z,18.77
2019-01-12T14:24:24.266Z,17.70
2019-01-12T14:29:26.971Z,11.47
2019-01-12T14:34:28.495Z,11.37
2019-01-12T14:39:31.170Z,21.20
2019-01-12T14:44:32.708Z,13.50
2019-01-12T14:49:35.497Z,19.90
2019-01-12T14:54:37.018Z,16.27
2019-01-12T14:59:40.359Z,14.20
2019-01-12T15:04:41.874Z,13.57
2019-01-12T15:09:45.175Z,14.80
2019-01-12T15:14:46.690Z,8.67
2019-01-12T15:19:48.253Z,17.07
2019-01-12T15:24:49.823Z,17.20
2019-01-12T15:29:51.417Z,10.07
2019-01-12T15:34:53.152Z,13.30
2019-01-12T15:39:54.697Z,15.37
2019-01-12T15:44:56.246Z,7.63
2019-01-12T15:49:57.829Z,16.33
2019-01-12T15:54:59.367Z,8.13
2019-01-12T16:00:00.925Z,7.47
2019-01-12T16:05:02.937Z,6.27
2019-01-12T16:10:04.755Z,10.13
2019-01-12T16:15:09.384Z,13.13
2019-01-12T16:20:13.905Z,17.37
2019-01-12T16:25:15.425Z,22.13
2019-01-12T16:30:18.343Z,12.00
2019-01-12T16:35:19.911Z,8.13
2019-01-12T16:40:22.404Z,20.00
2019-01-12T16:45:23.965Z,19.27
2019-01-12T16:50:25.510Z,14.33
2019-01-12T16:55:27.248Z,20.07
2019-01-12T17:00:29.726Z,18.07
2019-01-12T17:05:31.355Z,18.63
2019-01-12T17:10:33.268Z,14.30
2019-01-12T17:15:35.189Z,14.80
2019-01-12T17:20:37.921Z,18.80
2019-01-12T17:25:39.451Z,18.17
2019-01-12T17:30:41.344Z,18.33
2019-01-12T17:35:43.275Z,17.60
2019-01-12T17:40:44.838Z,21.67
2019-01-12T17:45:46.508Z,15.90
2019-01-12T17:50:48.499Z,18.10
2019-01-12T17:55:51.201Z,17.60
2019-01-12T18:00:52.959Z,16.03
2019-01-12T18:05:55.873Z,20.00
2019-01-12T18:10:57.403Z,21.37
2019-01-12T18:16:00.047Z,24.17
2019-01-12T18:21:01.614Z,22.63
2019-01-12T18:26:03.216Z,22.17
2019-01-12T18:31:04.758Z,29.33
2019-01-12T18:36:07.452Z,14.80
2019-01-12T18:41:09.051Z,27.20
2019-01-12T18:46:12.297Z,24.43
2019-01-12T18:51:14.041Z,22.53
2019-01-12T18:56:15.575Z,24.67
2019-01-12T19:01:18.284Z,24.03
2019-01-12T19:06:19.910Z,16.73
2019-01-12T19:11:22.896Z,20.80
2019-01-12T19:16:24.518Z,25.77
2019-01-12T19:21:26.605Z,18.03
2019-01-12T19:26:28.295Z,17.27
2019-01-12T19:31:30.518Z,22.83
2019-01-12T19:36:32.210Z,29.97
2019-01-12T19:41:35.859Z,22.67
2019-01-12T19:46:37.792Z,20.00
2019-01-12T19:51:39.364Z,20.73
2019-01-12T19:56:40.907Z,23.53
2019-01-12T20:01:43.583Z,17.30
2019-01-12T20:06:45.178Z,25.67
2019-01-12T20:11:47.006Z,21.87
2019-01-12T20:16:49.782Z,21.70
2019-01-12T20:21:52.477Z,24.80
2019-01-12T20:26:55.891Z,18.57
2019-01-12T20:32:25.096Z,22.57
2019-01-12T20:38:04.146Z,20.60
2019-01-12T20:43:26.739Z,17.67
2019-01-12T20:48:51.983Z,21.53
2019-01-12T20:54:50.258Z,25.70
2019-01-12T21:00:45.899Z,18.73
2019-01-12T21:06:12.747Z,22.87
2019-01-12T21:12:14.091Z,18.63
2019-01-12T21:17:16.514Z,24.07
2019-01-12T21:22:18.145Z,20.00
2019-01-12T21:27:20.768Z,18.60
2019-01-12T21:32:22.734Z,19.47
2019-01-12T21:37:24.410Z,23.40
2019-01-12T21:42:25.962Z,18.40
2019-01-12T21:47:27.871Z,22.27
2019-01-12T21:52:29.415Z,19.07
2019-01-12T21:57:31.386Z,27.57
2019-01-12T22:02:33.309Z,21.67
2019-01-12T22:07:34.933Z,22.40
2019-01-12T22:12:36.465Z,20.57
2019-01-12T22:17:38.325Z,20.43
2019-01-12T22:22:39.971Z,22.97
2019-01-12T22:27:41.625Z,22.17
2019-01-12T22:32:43.247Z,23.10
2019-01-12T22:37:44.856Z,23.03
2019-01-12T22:42:46.996Z,20.47
2019-01-12T22:47:48.528Z,21.30
2019-01-12T22:52:50.758Z,23.37
2019-01-12T22:57:52.385Z,21.97
2019-01-12T23:02:53.995Z,27.97
2019-01-12T23:07:55.604Z,18.53
2019-01-12T23:12:57.208Z,21.43
2019-01-12T23:17:58.743Z,28.87
2019-01-12T23:23:00.355Z,24.50
2019-01-12T23:28:02.027Z,28.10
2019-01-12T23:33:03.690Z,28.97
2019-01-12T23:38:05.257Z,30.37
2019-01-12T23:43:06.836Z,30.47
2019-01-12T23:48:08.373Z,32.03
2019-01-12T23:53:10.023Z,32.33
2019-01-12T23:58:11.603Z,29.33
